Nearby METAR Reports

 

KBFI - Seattle/Boeing, Washington, USA
Distance from station: S 10mi, 16km
Updated: Feb/06/2023 9:53pm
Overcast
Overcast
 Wind from SE
Wind: SE 9 mph , 15 km/h
Temperature: 46°F , 8°C
Wind Chill: 41°F , 5°C
Dew Point: 39°F , 4°C
Humidity: 76%
Barometer: 30.31 inHg , 1026.4 hPa
Clouds: Overcast
Visibility: 10 miles , 16 km
Cloud details: Overcast 3900 ft
2023/02/07 05:53 KBFI 070553Z 14008KT 10SM OVC039 08/04 A3031 RMK AO2 RAB19E38 SLP264 P0000 60000 T00780044 10089 20072 58007
KRNT - Renton, Washington, USA
Distance from station: SSE 14mi, 23km
Updated: Feb/06/2023 9:53pm
Light rain, Overcast
Light rain, Overcast
 Wind from ESE
Wind: ESE 5 mph , 7 km/h
Temperature: 46°F , 8°C
Wind Chill: 44°F , 7°C
Dew Point: 41°F , 5°C
Humidity: 82%
Barometer: 30.31 inHg , 1026.4 hPa
Summary: Light rain
Clouds: Overcast
Visibility: 9 miles , 14 km
Cloud details: Mostly cloudy 4800 ft
Overcast 7000 ft
2023/02/07 05:53 KRNT 070553Z AUTO 12004KT 9SM -RA BKN048 OVC070 08/05 A3031 RMK AO2 RAB08 SLP270 P0000 60000 T00780050 10094 20078 58008
 
KPAE - Everett, Washington, USA
Distance from station: N 15mi, 25km
Updated: Feb/06/2023 10:09pm
Overcast
Overcast
 Wind from S
Wind: S 21 mph , 33 km/h, Gust: 31 mph , 50 km/h
Temperature: 45°F , 7°C
Wind Chill: 37°F , 3°C
Dew Point: 39°F , 4°C
Humidity: 81%
Barometer: 30.28 inHg , 1025.4 hPa
Clouds: Overcast
Visibility: 10 miles , 16 km
Cloud details: Partly cloudy 1800 ft
Overcast 8000 ft
2023/02/07 06:09 KPAE 070609Z AUTO 17018G27KT 10SM SCT018 OVC080 07/04 A3028 RMK AO2 PK WND 17027/0609 T00720039
KSEA - Seattle/Metro, Washington, USA
Distance from station: S 17mi, 27km
Updated: Feb/06/2023 9:53pm
Overcast
Overcast
 Wind from SSE
Wind: SSE 10 mph , 17 km/h
Temperature: 45°F , 7°C
Wind Chill: 40°F , 4°C
Dew Point: 37°F , 3°C
Humidity: 76%
Barometer: 30.30 inHg , 1026.1 hPa
Clouds: Overcast
Visibility: 10 miles , 16 km
Cloud details: Overcast 4000 ft
2023/02/07 05:53 KSEA 070553Z 15009KT 10SM OVC040 07/03 A3030 RMK AO2 RAB04E13B29E49 SLP270 P0000 60000 T00720033 10083 20072 58008
 
KPWT - Bremerton Ntnl, Washington, USA
Distance from station: SW 24mi, 39km
Updated: Feb/06/2023 9:56pm
Light rain, Overcast
Light rain, Overcast
 Wind from SSW
Wind: SSW 12 mph , 19 km/h
Temperature: 45°F , 7°C
Wind Chill: 39°F , 4°C
Barometer: 30.29 inHg , 1025.7 hPa
Summary: Light rain
Clouds: Overcast
Visibility: 10 miles , 16 km
Cloud details: Overcast 800 ft
2023/02/07 05:56 KPWT 070556Z AUTO 20010KT 10SM -RA OVC008 07/ A3029 RMK AO2 RAB0459 SLP262 P0000 60000 T0067 10078 20067 56011
KTIW - Tacoma, Washington, USA
Distance from station: SSW 32mi, 52km
Updated: Feb/06/2023 9:53pm
Overcast
Overcast
 Wind from S
Wind: S 13 mph , 20 km/h, Gust: 23 mph , 37 km/h
Temperature: 46°F , 8°C
Wind Chill: 40°F , 4°C
Dew Point: 41°F , 5°C
Humidity: 82%
Barometer: 30.29 inHg , 1025.7 hPa
Clouds: Overcast
Visibility: 10 miles , 16 km
Cloud details: Few Clouds 2000 ft
Overcast 6500 ft
2023/02/07 05:53 KTIW 070553Z AUTO 19011G20KT 10SM FEW020 OVC065 08/05 A3029 RMK AO2 SLP260 T00830050 10083 20072 58013
 
KAWO - Arlington Muni, Washington, USA
Distance from station: N 33mi, 54km
Updated: Feb/06/2023 10:12pm
Overcast
Overcast
 Wind from SSE
Wind: SSE 21 mph , 33 km/h, Gust: 32 mph , 52 km/h
Temperature: 48°F , 9°C
Wind Chill: 41°F , 5°C
Dew Point: 39°F , 4°C
Humidity: 71%
Barometer: 30.27 inHg , 1025.1 hPa
Clouds: Overcast
Visibility: 10 miles , 16 km
Cloud details: Few Clouds 2600 ft
Partly cloudy 3100 ft
Overcast 9000 ft
2023/02/07 06:12 KAWO 070612Z AUTO 16018G28KT 10SM FEW026 SCT031 OVC090 09/04 A3027 RMK AO2 PK WND 16028/0607
KTCM - Tacoma/Mc Chord, Washington, USA
Distance from station: S 41mi, 65km
Updated: Feb/06/2023 9:55pm
Overcast
Overcast
 Wind from S
Wind: S 18 mph , 30 km/h
Temperature: 46°F , 8°C
Wind Chill: 39°F , 4°C
Dew Point: 43°F , 6°C
Humidity: 87%
Barometer: 30.30 inHg , 1026.1 hPa
Clouds: Overcast
Visibility: 10 miles , 16 km
Cloud details: Overcast 5500 ft
2023/02/07 05:55 KTCM 070555Z AUTO 19016KT 10SM OVC055 08/06 A3030 RMK AO2 SLP266 T00800061 10090 20062 56012
 
KPLU - Puyallup/Thun, Washington, USA
Distance from station: S 41mi, 66km
Updated: Dec/28/2022 9:55pm
NOT Current
Overcast
Overcast
 Wind from calm
Wind: Calm
Temperature: 41°F , 5°C
Dew Point: 41°F , 5°C
Humidity: 100%
Barometer: 29.78 inHg , 1008.5 hPa
Clouds: Overcast
Visibility: 10 miles , 16 km
Cloud details: Overcast 3800 ft
2022/12/29 05:55 KPLU 290555Z AUTO 00000KT 10SM OVC038 05/05 A2978 RMK AO2
KGRF - Fort Lewis/Gray, Washington, USA
Distance from station: SSW 45mi, 72km
Updated: Feb/06/2023 9:55pm
Mostly cloudy
Mostly cloudy
 Wind from SSE
Wind: SSE 10 mph , 17 km/h
Temperature: 46°F , 8°C
Wind Chill: 41°F , 5°C
Dew Point: 39°F , 4°C
Humidity: 76%
Barometer: 30.28 inHg , 1025.4 hPa
Clouds: Mostly cloudy
Visibility: 10 miles , 16 km
Cloud details: Mostly cloudy 5500 ft
2023/02/07 05:55 KGRF 070555Z AUTO 15009KT 10SM BKN055 08/04 A3028 RMK AO2 SLP259 60000 T00790039 10084 20063 57013 $
 
KNUW - Whidbey Is. Nas, Washington, USA
Distance from station: NNW 48mi, 77km
Updated: Feb/06/2023 9:53pm
Mostly cloudy
Mostly cloudy
 Wind from SSE
Wind: SSE 26 mph , 43 km/h, Gust: 39 mph , 63 km/h
Temperature: 46°F , 8°C
Wind Chill: 37°F , 3°C
Dew Point: 41°F , 5°C
Humidity: 82%
Barometer: 30.25 inHg , 1024.4 hPa
Clouds: Mostly cloudy
Visibility: 10 miles , 16 km
Cloud details: Partly cloudy 1900 ft
Mostly cloudy 2500 ft
Mostly cloudy 5500 ft
2023/02/07 05:53 KNUW 070553Z 16023G34KT 10SM SCT019 BKN025 BKN055 08/05 A3025 RMK PK WND 16038/0513 SLP244 60000 T00830050 10100 20083 56009
KSHN - Shelton, Washington, USA
Distance from station: SW 50mi, 80km
Updated: Feb/06/2023 10:07pm
Overcast
Overcast
 Wind from SSW
Wind: SSW 7 mph , 11 km/h
Temperature: 46°F , 8°C
Wind Chill: 42°F , 6°C
Dew Point: 43°F , 6°C
Humidity: 87%
Barometer: 30.26 inHg , 1024.7 hPa
Clouds: Overcast
Visibility: 10 miles , 16 km
Cloud details: Mostly cloudy 2400 ft
Overcast 3700 ft
2023/02/07 06:07 KSHN 070607Z AUTO 20006KT 10SM BKN024 OVC037 08/06 A3026 RMK AO2 T00780056